Aviation Digital Data Service (ADDS)

Output produced by METARs form (0946 UTC 07 December 2022)
found at http://www.aviationweather.gov/metar/data/
 
KHBG 070933Z AUTO 20003KT 8SM OVC004 20/19 A3023 RMK AO2 T02000194
KHBG 070853Z AUTO 00000KT 10SM OVC006 19/19 A3022 RMK AO2 SLP229 T01940189 53008
KHBG 070821Z AUTO 15003KT 9SM BKN006 18/18 A3020 RMK AO2 T01830183
KHBG 070806Z AUTO 15003KT 10SM FEW006 SCT023 19/18 A3020 RMK AO2 T01890183
KHBG 070753Z AUTO 15003KT 9SM FEW016 SCT023 19/18 A3020 RMK AO2 SLP223 T01890183
KHBG 070748Z AUTO 16003KT 10SM SCT016 SCT023 19/19 A3020 RMK AO2
KHBG 070733Z AUTO 15004KT 10SM BKN017 19/18 A3020 RMK AO2 T01890183
KHBG 070653Z AUTO 14004KT 10SM CLR 19/18 A3019 RMK AO2 SLP221 T01890183
KHBG 070553Z AUTO 16003KT 10SM SCT021 19/19 A3019 RMK AO2 SLP221 T01940189 10228 20194 402780194 53015
KHBG 070453Z AUTO 18005KT 10SM CLR 20/19 A3017 RMK AO2 SLP215 T02000189
KHBG 070353Z AUTO 18007KT 10SM FEW037 21/19 A3016 RMK AO2 SLP208 T02060194
KHBG 070253Z AUTO 18005KT 10SM SCT038 21/19 A3015 RMK AO2 SLP205 T02110194 53014
KHBG 070153Z AUTO 18006KT 10SM CLR 21/19 A3014 RMK AO2 SLP201 T02110194
KHBG 070053Z AUTO 17007KT 10SM CLR 22/19 A3011 RMK AO2 SLP194 T02220194
KHBG 062353Z AUTO 17006KT 10SM CLR 23/19 A3011 RMK AO2 SLP191 T02280194 10278 20228 53013
KHBG 062253Z AUTO 18008KT 10SM FEW035 24/19 A3009 RMK AO2 SLP185 T02440189
KHBG 062153Z AUTO 19007KT 10SM FEW042 SCT055 SCT065 26/18 A3008 RMK AO2 SLP181 T02610178
KHBG 062053Z AUTO 20006KT 10SM FEW043 SCT055 27/17 A3007 RMK AO2 SLP178 T02720172 56010
KHBG 061953Z AUTO 19008KT 10SM BKN041 BKN050 OVC065 27/18 A3007 RMK AO2 SLP180 T02720178
KHBG 061853Z AUTO 22006KT 10SM FEW039 FEW047 SCT060 26/18 A3008 RMK AO2 SLP182 T02610178
KHBG 061753Z AUTO 19012G19KT 170V230 10SM FEW031 26/19 A3010 RMK AO2 SLP188 60001 T02610189 10261 20206 58006
KHBG 061653Z AUTO 19009G17KT 170V230 10SM FEW020 25/20 A3012 RMK AO2 RAB00E11 SLP195 P0000 T02500200
KHBG 061617Z AUTO 22009KT 10SM FEW015 SCT028 SCT038 24/21 A3013 RMK AO2 RAB00E11 P0000 T02390206
KHBG 061553Z AUTO 20009KT 10SM SCT016 BKN023 OVC050 23/20 A3013 RMK AO2 RAB22E52 SLP199 P0000 T02280200
KHBG 061519Z AUTO 19010G17KT 10SM BKN016 BKN022 23/20 A3012 RMK AO2 T02280200
KHBG 061453Z AUTO 19010KT 10SM BKN013 BKN024 OVC035 23/21 A3011 RMK AO2 RAE07 SLP194 P0000 60001 T02280206 53017
KHBG 061434Z AUTO 19008KT 10SM BKN012 OVC020 22/21 A3011 RMK AO2 RAE07 P0000 T02220206
KHBG 061414Z AUTO 18008KT 10SM SCT010 BKN024 OVC055 22/21 A3010 RMK AO2 RAE07 P0000 T02170206
KHBG 061353Z AUTO 18007KT 6SM -RA BR FEW011 BKN046 OVC065 21/20 A3010 RMK AO2 RAB40 SLP189 P0001 T02110200
KHBG 061342Z AUTO 17008KT 6SM RA BR FEW009 BKN050 OVC065 21/20 A3009 RMK AO2 RAB40 P0000 T02110200
KHBG 061253Z AUTO 16006KT 10SM FEW011 FEW031 BKN070 21/19 A3008 RMK AO2 SLP184 T02060194
KHBG 061153Z AUTO 18003KT 10SM FEW010 SCT014 BKN065 21/20 A3006 RMK AO2 SLP178 60000 70002 T02060200 10211 20200 53009
KHBG 061145Z AUTO 17004KT 10SM SCT014 OVC065 21/20 A3006 RMK AO2 T02060200
KHBG 061053Z AUTO 19003KT 10SM BKN012 OVC017 21/20 A3005 RMK AO2 RAB24E36 SLP173 P0000 T02110200
KHBG 061019Z AUTO 17003KT 10SM BKN010 OVC016 21/19 A3004 RMK AO2 CIG 008V013 T02060194
KHBG 061007Z AUTO 18003KT 10SM BKN009 OVC016 21/19 A3004 RMK AO2 CIG 008V013 T02060194
KHBG 060953Z AUTO 17003KT 10SM BKN011 BKN016 OVC024 21/19 A3004 RMK AO2 SLP168 T02060194
KHBG 060914Z AUTO 18006KT 10SM SCT010 BKN014 OVC036 21/19 A3004 RMK AO2 T02060194
KHBG 060853Z AUTO 18005KT 10SM BKN009 OVC015 21/19 A3004 RMK AO2 CIG 006V012 SLP169 T02060194 52004
KHBG 060653Z AUTO 19005KT 10SM OVC006 21/19 A3003 RMK AO2 SLP165 T02060194
KHBG 060553Z AUTO 17006G16KT 10SM BKN008 OVC012 21/19 A3003 RMK AO2 SLP164 T02060194 10206 20200 402330156 50001
KHBG 060527Z AUTO 18006KT 10SM BKN011 OVC017 21/19 A3003 RMK AO2 CIG 007V013 T02060189
KHBG 060453Z AUTO 19008KT 10SM OVC007 21/19 A3003 RMK AO2 SLP166 T02060194
KHBG 060353Z AUTO 20008KT 10SM OVC007 20/19 A3002 RMK AO2 SLP164 T02000189
KHBG 060253Z AUTO 18010G18KT 10SM OVC009 20/19 A3002 RMK AO2 CIG 007V013 SLP164 T02000189 51001
KHBG 060250Z AUTO 18008KT 10SM BKN009 OVC014 20/19 A3002 RMK AO2 CIG 007V011
KHBG 060225Z AUTO 17007KT 10SM BKN013 BKN070 20/19 A3003 RMK AO2 T02000189
KHBG 060153Z AUTO 17005KT 10SM SCT014 BKN070 OVC080 20/19 A3002 RMK AO2 SLP164 T02000189
KHBG 060053Z AUTO 18005KT 10SM SCT013 BKN046 OVC080 21/19 A3002 RMK AO2 SLP163 T02060189
KHBG 052353Z AUTO 16005KT 10SM FEW015 OVC023 20/19 A3000 RMK AO2 SLP156 60002 T02000189 10233 20194 53004
KHBG 052328Z AUTO 00000KT 10SM BKN023 BKN030 20/19 A2999 RMK AO2 T02000189
KHBG 052253Z AUTO 15003KT 10SM CLR 20/19 A2999 RMK AO2 RAE2155 SLP154 P0000 T02000189
KHBG 052153Z AUTO 15006KT 8SM -RA BKN036 BKN047 OVC075 21/20 A2999 RMK AO2 RAB20 SLP154 P0002 T02110200
KHBG 052145Z AUTO 16005KT 3SM -RA BR BKN038 OVC047 21/19 A3000 RMK AO2 RAB20 P0002 T02060194
KHBG 052139Z AUTO 17006KT 1 3/4SM RA BR BKN040 BKN050 OVC060 21/19 A3000 RMK AO2 RAB20 P0001 T02060194
KHBG 052053Z AUTO 18007KT 10SM OVC075 23/18 A2999 RMK AO2 SLP152 T02280183 56015
KHBG 051953Z AUTO 19006KT 10SM OVC075 22/18 A2999 RMK AO2 SLP154 T02220178
KHBG 051853Z AUTO 19006KT 10SM OVC070 22/17 A3001 RMK AO2 SLP160 T02220172
KHBG 051753Z AUTO 20008KT 10SM OVC070 22/17 A3003 RMK AO2 SLP167 T02220167 10222 20172 58020
KHBG 051653Z AUTO 20009KT 10SM OVC070 22/17 A3007 RMK AO2 SLP179 T02170167
KHBG 051608Z AUTO 21005KT 10SM FEW012 OVC070 21/17 A3009 RMK AO2 T02060167
KHBG 051553Z AUTO 23007KT 10SM BKN011 BKN065 21/17 A3009 RMK AO2 SLP188 T02060167
KHBG 051505Z AUTO 19005KT 10SM OVC010 19/16 A3009 RMK AO2 T01890161
KHBG 051453Z AUTO 22006KT 10SM OVC009 18/16 A3009 RMK AO2 SLP187 T01830161 53012
KHBG 051353Z AUTO 22007KT 10SM OVC007 18/17 A3008 RMK AO2 SLP182 T01830167
KHBG 051253Z AUTO 20005KT 10SM OVC006 17/17 A3007 RMK AO2 CIG 005V010 SLP179 T01720167
KHBG 051212Z AUTO 18005KT 8SM OVC005 17/17 A3006 RMK AO2 CIG 002V009 T01720167
KHBG 051153Z AUTO 18004KT 4SM BR OVC003 17/17 A3006 RMK AO2 SLP176 T01720167 10172 20156 55004
KHBG 051150Z AUTO 20004KT 3SM BR OVC003 17/17 A3006 RMK AO2
KHBG 051136Z AUTO 20003KT 1SM BR VV003 17/17 A3006 RMK AO2 T01720167
KHBG 051053Z AUTO 00000KT 1/2SM FG VV002 17/17 A3006 RMK AO2 SLP175 T01670167
KHBG 051035Z AUTO 16003KT 1/2SM FG VV002 17/17 A3005 RMK AO2 T01670167
KHBG 051027Z AUTO 18003KT 1SM BR OVC002 17/17 A3005 RMK AO2 T01670167
KHBG 051012Z AUTO 00000KT 2 1/2SM BR OVC003 17/17 A3006 RMK AO2 T01670167
KHBG 050953Z AUTO 00000KT 5SM BR OVC003 17/17 A3006 RMK AO2 SLP177 T01670167
KHBG 050853Z AUTO 14004KT 10SM OVC004 16/15 A3007 RMK AO2 SLP180 T01560150 56016
KHBG 050843Z AUTO 14003KT 10SM OVC004 16/15 A3007 RMK AO2 T01560150
KHBG 050753Z AUTO 00000KT 10SM OVC006 16/14 A3008 RMK AO2 SLP184 T01560144
KHBG 050653Z AUTO 00000KT 10SM OVC006 16/14 A3009 RMK AO2 SLP189 T01560144
KHBG 050553Z AUTO 16003KT 10SM OVC008 16/14 A3012 RMK AO2 SLP197 T01560144 10172 20139 402000139 58015
KHBG 050546Z AUTO 16003KT 10SM OVC008 16/14 A3012 RMK AO2 CIG 007V010 T01560144
KHBG 050521Z AUTO 00000KT 10SM OVC012 16/14 A3013 RMK AO2 T01560144
KHBG 050453Z AUTO 00000KT 10SM OVC016 16/14 A3014 RMK AO2 SLP205 T01560144
KHBG 050353Z AUTO 13003KT 10SM OVC019 16/14 A3014 RMK AO2 SLP207 T01560144
KHBG 050311Z AUTO 36003KT 6SM BR BKN019 OVC065 16/15 A3016 RMK AO2 T01560150
KHBG 050253Z AUTO 35006KT 9SM BKN060 15/14 A3016 RMK AO2 SLP212 T01500144 53002
KHBG 050153Z AUTO 00000KT 8SM CLR 14/14 A3015 RMK AO2 SLP208 T01440139
KHBG 050053Z AUTO 12003KT 10SM CLR 16/15 A3015 RMK AO2 SLP207 T01560150
KHBG 042353Z AUTO 00000KT 10SM OVC060 17/15 A3016 RMK AO2 SLP211 T01720150 10200 20167 58005
KHBG 042313Z AUTO 00000KT 10SM SCT020 OVC065 18/15 A3016 RMK AO2 T01780150
KHBG 042253Z AUTO 00000KT 10SM OVC019 18/15 A3017 RMK AO2 SLP214 T01780150
KHBG 042217Z AUTO 00000KT 10SM BKN015 18/14 A3016 RMK AO2 T01830144
KHBG 042153Z AUTO 35004KT 10SM OVC013 19/15 A3017 RMK AO2 SLP213 T01890150
KHBG 042143Z AUTO 31004KT 10SM BKN015 19/14 A3017 RMK AO2 T01890144
KHBG 042053Z AUTO VRB04KT 10SM BKN060 19/14 A3017 RMK AO2 SLP215 T01940144 56024
KHBG 041953Z AUTO 00000KT 10SM OVC060 18/14 A3019 RMK AO2 SLP220 T01830139
KHBG 041853Z AUTO 01006KT 10SM OVC055 17/14 A3021 RMK AO2 SLP228 T01720139
KHBG 041753Z AUTO 00000KT 10SM OVC046 17/13 A3024 RMK AO2 SLP239 T01670133 10167 20144 58019
KHBG 041653Z AUTO 00000KT 10SM OVC046 17/13 A3028 RMK AO2 SLP250 T01670133
KHBG 041553Z AUTO 02003KT 10SM FEW009 OVC049 16/13 A3030 RMK AO2 SLP259 T01610128
KHBG 041511Z AUTO 02004KT 10SM SCT007 OVC049 15/13 A3030 RMK AO2 T01500128
KHBG 041453Z AUTO 02003KT 10SM OVC007 15/13 A3030 RMK AO2 SLP257 T01500133 51013
KHBG 041353Z AUTO 36003KT 10SM OVC005 14/14 A3029 RMK AO2 SLP255 T01440139
KHBG 041343Z AUTO 36004KT 9SM OVC005 14/14 A3028 RMK AO2 T01440139
KHBG 041253Z AUTO 03004KT 7SM OVC003 15/14 A3027 RMK AO2 SLP250 T01500139
KHBG 041230Z AUTO 36004KT 8SM OVC004 15/14 A3027 RMK AO2 T01500144
KHBG 041153Z AUTO 03003KT 10SM OVC006 15/14 A3026 RMK AO2 SLP244 70014 T01500144 10178 20144 55000
KHBG 041100Z AUTO 01006KT 10SM OVC005 15/14 A3026 RMK AO2 CIG 002V008 T01500144
KHBG 041053Z AUTO 35005KT 9SM OVC004 15/14 A3025 RMK AO2 SLP243 T01500144
KHBG 041045Z AUTO 33004KT 2SM BR OVC004 15/14 A3025 RMK AO2 T01500144
KHBG 041035Z AUTO 34003KT 3/4SM BR BKN002 OVC007 15/15 A3025 RMK AO2 T01500150
KHBG 041022Z AUTO 31003KT 1 3/4SM BR BKN002 BKN007 14/14 A3025 RMK AO2 VIS 3/4V4 T01440139
KHBG 041017Z AUTO 32003KT 2 1/2SM BR SCT002 BKN007 14/14 A3025 RMK AO2 T01440139
KHBG 041009Z AUTO 00000KT 9SM SCT007 15/15 A3025 RMK AO2 T01500150
KHBG 040953Z AUTO 00000KT 10SM CLR 15/14 A3025 RMK AO2 SLP240 T01500144
KHBG 070912Z 0709/0806 00000KT 5SM BR OVC006 
     FM071100 00000KT 3/4SM BR OVC002 
     TEMPO 0711/0713 1/2SM FG OVC001 
     FM071400 20003KT P6SM OVC007 
     FM071600 19004KT P6SM BKN015 
     FM072000 21006KT P6SM SCT060